Terminal Aerodrome Forecast
Issued by NWS

Home | Current Version | Previous Version | Text Only | Print | Product List | Glossary On
Versions: 1 2 3 4 5 6 7 8 9 10 11 12
438
FTPA31 PHFO 232332
TAFHOG
TAF
PHOG 232332Z 2400/2424 05018G25KT P6SM FEW030 SCT060
     FM240500 06015KT P6SM FEW030 SCT060
     FM241000 06011KT P6SM FEW030 SCT060
     FM241900 06018G25KT P6SM FEW030 SCT060=

USA.gov is the U.S. government's official web portal to all federal, state and local government web resources and services.